Time;durP1;ratioP1;P1;durP2;ratioP2;P2;SDS_P1;SDS_P2;PMS_P1;PMS_P2;Temp;Humidity;BMP_temperature;BMP_pressure;BME280_temperature;BME280_humidity;BME280_pressure;Samples;Min_cycle;Max_cycle;Signal;HPM_P1;HPM_P2
2023/04/17 05:53:36;;;;;;;;;36.00;29.25;;;;;8.78;64.17;102202.31;6210579;22;46719;-70
2023/04/17 05:56:02;;;;;;;;;31.25;27.50;;;;;8.79;62.62;102193.56;6245051;22;45176;-70
2023/04/17 05:58:27;;;;;;;;;37.25;30.00;;;;;8.81;64.36;102197.19;6246292;22;45176;-71
2023/04/17 06:00:53;;;;;;;;;28.00;24.00;;;;;8.90;63.52;102209.13;6245831;22;45247;-71
2023/04/17 06:03:19;;;;;;;;;28.00;27.25;;;;;8.93;61.74;102204.06;6246198;22;45278;-71
2023/04/17 06:05:45;;;;;;;;;31.75;29.75;;;;;8.96;64.38;102204.22;6245660;22;45347;-71
2023/04/17 06:08:11;;;;;;;;;34.25;29.75;;;;;9.04;62.57;102201.97;6246227;22;45311;-71
2023/04/17 06:10:36;;;;;;;;;39.25;30.50;;;;;9.10;63.64;102207.59;6246484;22;45334;-71
2023/04/17 06:13:02;;;;;;;;;19.25;17.25;;;;;9.14;64.91;102208.66;6246094;22;45308;-71
2023/04/17 06:15:27;;;;;;;;;40.75;30.25;;;;;9.15;62.40;102191.97;6244203;22;45292;-71
2023/04/17 06:17:54;;;;;;;;;32.75;29.25;;;;;9.28;63.55;102206.75;6247466;22;45431;-71
2023/04/17 06:20:19;;;;;;;;;37.00;27.00;;;;;9.28;62.94;102199.72;6248302;22;45150;-71
2023/04/17 06:22:45;;;;;;;;;36.75;30.00;;;;;9.28;63.42;102196.19;6245048;22;45219;-71
2023/04/17 06:25:11;;;;;;;;;35.25;29.75;;;;;9.30;63.04;102198.06;6244091;22;45221;-71
2023/04/17 06:27:37;;;;;;;;;32.50;28.00;;;;;9.39;63.23;102219.66;6246469;22;45469;-71
2023/04/17 06:30:03;;;;;;;;;29.25;24.75;;;;;9.43;62.57;102219.81;6246624;22;45209;-71
2023/04/17 06:32:28;;;;;;;;;38.25;31.25;;;;;9.43;61.96;102210.16;6245866;22;45351;-70
2023/04/17 06:34:53;;;;;;;;;35.25;31.25;;;;;9.35;61.88;102193.94;6246660;22;45197;-70
2023/04/17 06:37:19;;;;;;;;;29.50;27.50;;;;;9.44;61.61;102204.06;6246373;22;45497;-71
2023/04/17 06:39:45;;;;;;;;;34.25;30.75;;;;;9.43;62.07;102196.06;6244641;22;46208;-71
2023/04/17 06:42:10;;;;;;;;;34.50;29.00;;;;;9.46;62.63;102209.41;6246189;22;45267;-71
2023/04/17 06:44:36;;;;;;;;;38.00;31.00;;;;;9.44;62.61;102209.34;6246396;22;45295;-71
2023/04/17 06:47:02;;;;;;;;;34.00;29.50;;;;;9.43;63.46;102206.63;6244474;22;45291;-70
2023/04/17 06:49:30;;;;;;;;;29.75;27.75;;;;;9.48;62.20;102220.97;6243365;22;46646;-70
2023/04/17 06:51:55;;;;;;;;;18.50;12.25;;;;;9.42;62.38;102213.63;6246440;22;45210;-71
2023/04/17 06:54:21;;;;;;;;;29.25;27.50;;;;;9.48;63.83;102232.41;6243312;22;45296;-72
2023/04/17 06:56:46;;;;;;;;;34.00;32.75;;;;;9.45;62.44;102221.72;6246595;22;48471;-70
2023/04/17 06:59:12;;;;;;;;;37.50;32.00;;;;;9.48;63.02;102235.06;6247485;22;45153;-70
2023/04/17 07:01:39;;;;;;;;;36.00;32.50;;;;;9.44;63.01;102224.25;6248751;22;44638;-71
2023/04/17 07:04:04;;;;;;;;;37.50;32.75;;;;;9.49;62.89;102236.84;6247157;22;45244;-70
2023/04/17 07:06:32;;;;;;;;;34.00;31.75;;;;;9.51;63.77;102239.59;6246787;22;45284;-71
2023/04/17 07:08:58;;;;;;;;;33.50;31.75;;;;;9.53;62.38;102233.56;6245770;22;46026;-70
2023/04/17 07:11:24;;;;;;;;;40.00;35.00;;;;;9.51;62.61;102229.94;6243700;22;45243;-70
2023/04/17 07:13:49;;;;;;;;;42.75;34.75;;;;;9.56;62.72;102227.53;6244010;22;45232;-70
2023/04/17 07:16:15;;;;;;;;;34.25;32.25;;;;;9.53;64.12;102230.03;6246267;22;45350;-70
2023/04/17 07:18:40;;;;;;;;;40.50;34.25;;;;;9.63;64.84;102243.78;6245991;22;45158;-70
2023/04/17 07:21:05;;;;;;;;;36.25;31.50;;;;;9.62;64.17;102243.69;6246544;22;45163;-70
2023/04/17 07:23:31;;;;;;;;;40.00;32.75;;;;;9.67;62.96;102242.19;6245746;22;45461;-72
2023/04/17 07:25:56;;;;;;;;;38.75;33.25;;;;;9.73;64.21;102250.44;6245954;22;54921;-70
2023/04/17 07:28:21;;;;;;;;;47.25;38.50;;;;;9.60;64.68;102218.94;6246078;22;45327;-70
2023/04/17 07:30:47;;;;;;;;;34.00;30.75;;;;;9.77;62.46;102247.09;6246609;22;45224;-70
2023/04/17 07:33:12;;;;;;;;;39.50;32.00;;;;;9.86;62.84;102263.44;6246436;22;45153;-70
2023/04/17 07:35:38;;;;;;;;;44.25;33.75;;;;;9.89;64.25;102265.31;6246300;22;47142;-70
2023/04/17 07:38:03;;;;;;;;;40.50;34.00;;;;;9.92;64.91;102262.84;6245577;22;45157;-71
2023/04/17 07:40:30;;;;;;;;;34.50;31.00;;;;;9.88;63.48;102265.22;6246593;22;45194;-71
2023/04/17 07:42:55;;;;;;;;;42.50;36.00;;;;;9.94;62.84;102268.19;6247892;22;45260;-72
2023/04/17 07:45:21;;;;;;;;;43.25;35.25;;;;;9.86;64.23;102251.97;6249052;22;45200;-72
2023/04/17 07:47:47;;;;;;;;;40.25;31.75;;;;;10.03;64.72;102271.31;6248214;22;45275;-72
2023/04/17 07:50:12;;;;;;;;;46.00;34.00;;;;;10.05;63.84;102269.63;6244692;22;45411;-72
2023/04/17 07:52:38;;;;;;;;;49.25;38.75;;;;;10.06;65.66;102268.81;6245189;22;45600;-71
2023/04/17 07:55:03;;;;;;;;;42.50;33.50;;;;;9.99;64.75;102246.44;6269506;22;45427;-71
2023/04/17 07:57:29;;;;;;;;;46.25;37.50;;;;;10.15;63.37;102271.91;6276464;22;46334;-71
2023/04/17 07:59:54;;;;;;;;;41.50;33.50;;;;;10.08;63.52;102248.63;6278139;22;45355;-72
2023/04/17 08:02:20;;;;;;;;;39.25;33.00;;;;;10.19;63.57;102254.47;6278277;22;45396;-71
2023/04/17 08:04:45;;;;;;;;;38.00;32.00;;;;;10.22;62.82;102257.25;6277669;22;45252;-71
2023/04/17 08:07:11;;;;;;;;;38.50;32.75;;;;;10.12;63.91;102233.88;6278239;22;46484;-71
2023/04/17 08:09:37;;;;;;;;;37.00;33.50;;;;;10.29;64.11;102259.41;6277608;22;45275;-71
2023/04/17 08:12:03;;;;;;;;;42.25;33.25;;;;;10.36;63.46;102260.59;6278404;22;45459;-71
2023/04/17 08:14:29;;;;;;;;;40.50;33.50;;;;;10.31;63.00;102244.53;6278050;22;45255;-71
2023/04/17 08:16:54;;;;;;;;;35.50;30.50;;;;;10.44;63.03;102272.44;6278118;22;45378;-71
2023/04/17 08:19:19;;;;;;;;;36.50;32.75;;;;;10.36;62.16;102244.75;6277797;22;45703;-71
2023/04/17 08:21:49;;;;;;;;;37.75;32.00;;;;;10.47;62.22;102252.38;6250142;22;45312;-71
2023/04/17 08:24:15;;;;;;;;;36.50;28.50;;;;;10.55;63.59;102257.13;6276273;22;45453;-71
2023/04/17 08:26:40;;;;;;;;;38.50;33.75;;;;;10.64;62.06;102269.06;6279186;22;45126;-71
2023/04/17 08:29:07;;;;;;;;;40.00;33.00;;;;;10.51;63.41;102242.84;6278270;22;45227;-71
2023/04/17 08:31:35;;;;;;;;;40.00;34.75;;;;;10.63;64.09;102251.34;6278944;22;45243;-71
2023/04/17 08:34:01;;;;;;;;;39.00;33.00;;;;;10.79;63.53;102270.59;6277636;22;45370;-71
2023/04/17 08:36:27;;;;;;;;;47.75;36.25;;;;;10.71;63.33;102235.84;6278068;22;45951;-71
2023/04/17 08:38:52;;;;;;;;;37.50;33.00;;;;;10.94;61.57;102264.28;6277148;22;45248;-71
2023/04/17 08:41:24;;;;;;;;;44.25;35.75;;;;;11.03;63.37;102260.25;6278365;22;45303;-71
2023/04/17 08:43:50;;;;;;;;;46.75;36.00;;;;;11.05;62.12;102248.00;6277391;22;45418;-71
2023/04/17 08:46:17;;;;;;;;;44.75;36.00;;;;;11.21;62.49;102258.44;6278512;22;45225;-71
2023/04/17 08:48:43;;;;;;;;;41.25;36.00;;;;;11.27;62.52;102253.41;6277984;22;45313;-71
2023/04/17 08:51:09;;;;;;;;;46.75;38.00;;;;;11.34;61.92;102250.22;6278437;22;45218;-71
2023/04/17 08:53:34;;;;;;;;;50.75;37.25;;;;;11.39;61.87;102251.31;6248755;22;46492;-71
2023/04/17 08:56:04;;;;;;;;;49.75;39.00;;;;;11.48;62.00;102260.50;6276484;22;45228;-71
2023/04/17 08:58:34;;;;;;;;;50.00;40.00;;;;;11.47;62.33;102258.69;6277305;22;45280;-70
2023/04/17 09:01:17;;;;;;;;;48.50;36.75;;;;;11.42;61.49;102251.44;6278364;22;45185;-71
2023/04/17 09:03:44;;;;;;;;;52.25;39.50;;;;;11.52;61.73;102252.75;6277934;22;45453;-71
2023/04/17 09:06:10;;;;;;;;;42.00;35.00;;;;;11.64;62.07;102257.69;6249289;22;47702;-71
2023/04/17 09:08:37;;;;;;;;;47.50;37.50;;;;;11.67;61.71;102256.91;6277832;22;45180;-71
2023/04/17 09:11:02;;;;;;;;;50.75;39.00;;;;;11.70;60.92;102247.34;6279468;22;45278;-71
2023/04/17 09:13:29;;;;;;;;;50.25;40.25;;;;;11.76;61.17;102258.22;6278411;22;45144;-71
2023/04/17 09:16:03;;;;;;;;;55.25;41.25;;;;;11.77;61.35;102267.97;6277917;22;45588;-71
2023/04/17 09:18:30;;;;;;;;;48.75;37.75;;;;;11.82;61.00;102261.13;6277851;22;45233;-71
2023/04/17 09:20:58;;;;;;;;;45.75;38.50;;;;;11.90;60.90;102261.47;6278155;22;45270;-71
2023/04/17 09:23:25;;;;;;;;;54.00;40.25;;;;;11.96;60.57;102261.75;6277284;22;45457;-70
2023/04/17 09:26:11;;;;;;;;;48.50;38.50;;;;;11.92;60.65;102253.59;6278007;22;45183;-70
2023/04/17 09:28:40;;;;;;;;;53.50;42.25;;;;;12.03;60.77;102253.22;6249958;22;45908;-71
2023/04/17 09:31:25;;;;;;;;;49.25;38.50;;;;;12.03;60.31;102237.31;6278158;22;45236;-71
2023/04/17 09:33:57;;;;;;;;;49.25;36.75;;;;;12.13;60.12;102256.22;6277635;22;45299;-71
2023/04/17 09:36:22;;;;;;;;;43.50;36.75;;;;;12.20;59.95;102260.94;6249667;22;48034;-70
2023/04/17 09:38:48;;;;;;;;;46.25;38.75;;;;;12.24;59.92;102258.50;6277529;22;45186;-71
2023/04/17 09:41:28;;;;;;;;;48.50;40.75;;;;;12.26;59.75;102262.09;6250506;22;45225;-71
2023/04/17 09:43:55;;;;;;;;;51.00;40.00;;;;;12.22;59.77;102238.97;6276971;22;45340;-71
2023/04/17 09:46:38;;;;;;;;;44.00;37.00;;;;;12.31;60.05;102267.59;6277603;22;45305;-71
2023/04/17 09:49:13;;;;;;;;;43.25;35.75;;;;;12.29;59.91;102256.94;6272104;22;45500;-71
2023/04/17 09:51:39;;;;;;;;;46.25;36.00;;;;;12.32;59.97;102248.19;6275720;22;45411;-72
2023/04/17 09:54:08;;;;;;;;;50.75;38.25;;;;;12.36;59.94;102263.41;6276750;22;45261;-71
2023/04/17 09:56:35;;;;;;;;;52.25;40.75;;;;;12.42;58.99;102258.34;6277277;22;45232;-71
2023/04/17 09:59:03;;;;;;;;;47.75;38.50;;;;;12.26;59.07;102229.38;6276985;22;45236;-71
2023/04/17 10:01:32;;;;;;;;;43.25;34.50;;;;;12.49;59.65;102256.81;6277388;22;45379;-72
2023/04/17 10:03:59;;;;;;;;;51.50;38.00;;;;;12.49;59.13;102257.75;6277124;22;45184;-72
2023/04/17 10:06:28;;;;;;;;;52.75;42.00;;;;;12.54;59.16;102255.25;6276553;22;45237;-74
2023/04/17 10:08:54;;;;;;;;;43.00;34.25;;;;;12.60;59.49;102249.28;6275704;22;45409;-71
2023/04/17 10:11:23;;;;;;;;;42.00;35.00;;;;;12.57;59.42;102254.47;6275011;22;45366;-71
2023/04/17 10:14:03;;;;;;;;;45.50;39.00;;;;;12.59;58.99;102268.72;6272368;22;45386;-70
2023/04/17 10:16:38;;;;;;;;;51.75;36.25;;;;;12.55;59.43;102265.03;6248277;22;46648;-71
2023/04/17 10:19:24;;;;;;;;;48.25;38.50;;;;;12.58;59.32;102261.63;6247248;22;45380;-70
2023/04/17 10:22:14;;;;;;;;;46.25;35.75;;;;;12.58;59.22;102262.50;6277360;22;45276;-71
2023/04/17 10:24:43;;;;;;;;;42.25;34.75;;;;;12.49;59.12;102244.50;6249156;22;46913;-71
2023/04/17 10:27:27;;;;;;;;;49.75;39.00;;;;;12.56;59.27;102256.22;6277430;22;45311;-71
2023/04/17 10:29:58;;;;;;;;;54.50;44.00;;;;;12.58;59.51;102261.63;6277043;22;45253;-72
2023/04/17 10:32:27;;;;;;;;;52.00;42.25;;;;;12.62;59.23;102250.25;6277533;22;45394;-72
2023/04/17 10:34:58;;;;;;;;;53.00;40.00;;;;;12.60;59.25;102254.59;6275433;22;45486;-72
2023/04/17 10:37:45;;;;;;;;;46.75;39.00;;;;;12.58;59.15;102254.56;6249011;22;46699;-70
2023/04/17 10:40:11;;;;;;;;;49.75;42.00;;;;;12.56;59.22;102242.97;6277384;22;45237;-71
2023/04/17 10:42:37;;;;;;;;;58.00;47.75;;;;;12.65;59.42;102250.38;6276931;22;45304;-72
2023/04/17 10:45:07;;;;;;;;;52.75;42.00;;;;;12.65;59.02;102243.31;6277171;22;45255;-71
2023/04/17 10:47:34;;;;;;;;;41.75;35.75;;;;;12.69;58.96;102244.38;6276834;22;45384;-71
2023/04/17 10:50:02;;;;;;;;;80.00;65.00;;;;;12.68;59.02;102243.44;6277016;22;45232;-72
2023/04/17 10:52:40;;;;;;;;;50.75;41.50;;;;;12.67;58.85;102231.03;6277072;22;45236;-71
2023/04/17 10:55:13;;;;;;;;;48.75;37.25;;;;;12.79;58.76;102237.66;6244082;22;47176;-71
2023/04/17 10:57:57;;;;;;;;;54.25;37.25;;;;;12.80;58.75;102243.03;6244621;22;46211;-71
2023/04/17 11:00:35;;;;;;;;;46.00;37.25;;;;;12.81;58.45;102223.59;6246176;22;45350;-71
2023/04/17 11:03:02;;;;;;;;;47.00;38.00;;;;;12.85;58.35;102229.91;6245093;22;45423;-72
2023/04/17 11:05:27;;;;;;;;;48.00;37.75;;;;;12.79;58.54;102221.72;6243588;22;45295;-71
2023/04/17 11:07:53;;;;;;;;;44.25;36.75;;;;;12.88;58.62;102233.63;6242207;22;47604;-68
2023/04/17 11:10:20;;;;;;;;;51.75;40.25;;;;;12.90;58.48;102229.25;6246058;22;45433;-68
2023/04/17 11:12:47;;;;;;;;;43.75;36.00;;;;;12.89;58.46;102226.56;6245869;22;45265;-71
2023/04/17 11:15:13;;;;;;;;;56.25;41.25;;;;;12.87;58.42;102220.28;6245894;22;45458;-71
2023/04/17 11:17:44;;;;;;;;;47.75;38.00;;;;;12.95;58.54;102219.72;6247057;22;46132;-70
2023/04/17 11:20:10;;;;;;;;;50.00;38.25;;;;;12.88;58.38;102190.22;6246969;22;45312;-71
2023/04/17 11:22:35;;;;;;;;;45.00;36.75;;;;;13.05;58.29;102222.69;6249158;22;45319;-70
2023/04/17 11:25:01;;;;;;;;;42.25;35.00;;;;;13.08;58.30;102214.84;6249870;22;45228;-71
2023/04/17 11:27:26;;;;;;;;;37.25;32.25;;;;;13.11;58.03;102209.69;6248774;22;52550;-71
2023/04/17 11:29:51;;;;;;;;;50.75;37.50;;;;;13.08;57.77;102204.22;6247394;22;49569;-72
2023/04/17 11:32:17;;;;;;;;;38.75;32.50;;;;;13.19;57.66;102227.69;6250045;22;45350;-72
2023/04/17 11:34:42;;;;;;;;;45.50;35.50;;;;;13.11;57.59;102201.72;6247292;22;45586;-72
2023/04/17 11:37:07;;;;;;;;;38.50;34.00;;;;;13.22;57.88;102213.63;6249662;22;45344;-73
2023/04/17 11:39:33;;;;;;;;;40.75;32.25;;;;;13.32;57.84;102222.84;6248618;22;45280;-72
2023/04/17 11:42:01;;;;;;;;;39.50;33.25;;;;;13.36;57.28;102220.38;6249232;22;45189;-70
2023/04/17 11:44:28;;;;;;;;;36.50;31.50;;;;;13.36;56.92;102220.38;6248025;22;45216;-73
2023/04/17 11:46:57;;;;;;;;;31.75;31.25;;;;;13.39;57.38;102216.91;6246717;22;46247;-72
2023/04/17 11:49:24;;;;;;;;;39.75;34.00;;;;;13.39;57.31;102217.81;6247739;22;45602;-73
2023/04/17 11:51:50;;;;;;;;;34.75;30.75;;;;;13.40;57.24;102222.25;6246244;22;45336;-72
2023/04/17 11:54:30;;;;;;;;;41.00;34.00;;;;;13.41;57.23;102233.78;6261366;22;45351;-72
2023/04/17 11:57:03;;;;;;;;;38.25;34.00;;;;;13.36;56.96;102222.09;6279831;22;45414;-72
2023/04/17 11:59:32;;;;;;;;;46.50;35.00;;;;;13.37;57.48;102231.88;6279651;22;45250;-72
2023/04/17 12:01:59;;;;;;;;;46.50;36.00;;;;;13.32;57.58;102237.03;6279930;22;45261;-72
2023/04/17 12:04:25;;;;;;;;;37.50;32.00;;;;;13.27;57.21;102224.44;6277940;22;45284;-72
2023/04/17 12:06:50;;;;;;;;;38.50;32.50;;;;;13.15;57.36;102215.13;6276610;22;46667;-72
2023/04/17 12:09:23;;;;;;;;;39.00;33.50;;;;;13.18;57.82;102225.84;6277668;22;45335;-72
2023/04/17 12:11:50;;;;;;;;;36.75;33.00;;;;;13.13;57.46;102200.00;6278762;22;45373;-72
2023/04/17 12:14:15;;;;;;;;;43.50;35.75;;;;;13.12;57.13;102208.81;6277495;22;45511;-72
2023/04/17 12:16:40;;;;;;;;;41.75;34.25;;;;;13.14;57.59;102207.13;6279358;22;45236;-72
2023/04/17 12:19:06;;;;;;;;;45.75;37.00;;;;;13.16;57.25;102205.41;6278409;22;45212;-72
2023/04/17 12:21:32;;;;;;;;;34.75;32.00;;;;;13.19;56.77;102217.06;6279109;22;45515;-72
2023/04/17 12:23:57;;;;;;;;;35.00;29.75;;;;;13.31;57.15;102227.25;6278129;22;45306;-72
2023/04/17 12:26:24;;;;;;;;;41.00;33.75;;;;;13.33;56.92;102219.31;6278115;22;46343;-72
2023/04/17 12:28:49;;;;;;;;;39.00;33.25;;;;;13.28;56.67;102219.19;6278079;22;45546;-72
2023/04/17 12:31:15;;;;;;;;;33.75;29.25;;;;;13.29;56.54;102222.75;6275445;22;45276;-72
2023/04/17 12:33:40;;;;;;;;;41.75;34.75;;;;;13.31;56.65;102226.34;6276733;22;45249;-72
2023/04/17 12:36:06;;;;;;;;;42.50;34.00;;;;;13.30;56.82;102219.22;6275815;22;46315;-72
2023/04/17 12:38:32;;;;;;;;;37.75;31.25;;;;;13.35;56.39;102222.94;6276223;22;45715;-72
2023/04/17 12:40:57;;;;;;;;;35.50;30.75;;;;;13.37;57.02;102219.50;6276731;22;45208;-72
2023/04/17 12:43:23;;;;;;;;;42.25;36.00;;;;;13.27;56.78;102206.72;6276267;22;45578;-73
2023/04/17 12:45:49;;;;;;;;;47.00;34.25;;;;;13.24;56.59;102173.84;6276903;22;45966;-73
2023/04/17 12:48:16;;;;;;;;;37.25;32.50;;;;;13.38;56.54;102205.38;6276814;22;45481;-72
2023/04/17 12:50:42;;;;;;;;;42.50;35.25;;;;;13.46;56.28;102216.25;6249068;22;45631;-72
2023/04/17 12:53:09;;;;;;;;;42.75;35.00;;;;;13.38;56.48;102200.06;6275415;22;45265;-72
2023/04/17 12:55:39;;;;;;;;;37.00;34.00;;;;;13.49;56.70;102212.81;6248309;22;46235;-72
2023/04/17 12:58:06;;;;;;;;;36.25;30.00;;;;;13.54;56.69;102221.84;6275242;22;45416;-72
2023/04/17 13:00:32;;;;;;;;;44.75;35.50;;;;;13.47;56.37;102222.47;6277236;22;45292;-72
2023/04/17 13:02:57;;;;;;;;;42.00;33.75;;;;;13.46;56.37;102213.59;6276208;22;45538;-72
2023/04/17 13:05:23;;;;;;;;;43.00;33.50;;;;;13.53;56.63;102228.03;6276289;22;46374;-72
2023/04/17 13:07:48;;;;;;;;;38.25;33.75;;;;;13.44;56.50;102220.63;6276475;22;45317;-72
2023/04/17 13:10:13;;;;;;;;;33.75;31.00;;;;;13.44;56.46;102220.63;6247710;22;50672;-72
2023/04/17 13:12:41;;;;;;;;;43.25;33.25;;;;;13.38;56.69;102207.13;6276716;22;45240;-73
2023/04/17 13:15:07;;;;;;;;;42.00;34.25;;;;;13.41;56.73;102218.78;6276175;22;45221;-72
2023/04/17 13:17:32;;;;;;;;;44.25;35.00;;;;;13.36;56.48;102217.72;6277099;22;45311;-72
2023/04/17 13:19:57;;;;;;;;;36.50;30.25;;;;;13.25;57.13;102210.16;6275903;22;45417;-72
2023/04/17 13:22:23;;;;;;;;;42.25;35.25;;;;;13.23;56.60;102209.22;6249784;22;46504;-72
2023/04/17 13:24:48;;;;;;;;;46.50;35.00;;;;;13.15;57.38;102201.84;6276972;22;47148;-72
2023/04/17 13:27:13;;;;;;;;;50.00;37.75;;;;;13.19;57.55;102208.19;6277964;22;45272;-72
2023/04/17 13:29:39;;;;;;;;;43.75;38.00;;;;;13.12;57.46;102204.41;6276205;22;45261;-72
2023/04/17 13:32:04;;;;;;;;;47.75;37.50;;;;;13.06;57.67;102204.19;6249906;22;45276;-72
2023/04/17 13:34:30;;;;;;;;;52.25;38.25;;;;;13.07;58.04;102205.09;6277494;22;45277;-72
2023/04/17 13:36:56;;;;;;;;;48.00;38.50;;;;;13.09;57.47;102204.28;6277615;22;45241;-72
2023/04/17 13:39:21;;;;;;;;;50.00;38.00;;;;;13.03;57.19;102187.25;6276749;22;45406;-73
2023/04/17 13:41:47;;;;;;;;;47.75;38.25;;;;;13.03;57.51;102181.94;6277636;22;45106;-70
2023/04/17 13:44:12;;;;;;;;;46.25;37.50;;;;;12.97;57.42;102188.84;6277239;22;45950;-69
2023/04/17 13:46:38;;;;;;;;;49.50;38.50;;;;;12.98;58.18;102190.63;6275958;22;45213;-69
2023/04/17 13:49:04;;;;;;;;;42.75;37.00;;;;;12.94;57.29;102179.88;6249388;22;45256;-72
2023/04/17 13:51:30;;;;;;;;;52.00;41.00;;;;;13.01;57.88;102188.94;6249526;22;45834;-72
2023/04/17 13:53:58;;;;;;;;;46.50;37.50;;;;;13.04;57.84;102191.69;6275765;22;45294;-72
2023/04/17 13:56:27;;;;;;;;;53.50;40.25;;;;;13.05;57.97;102191.78;6277393;22;45339;-72
2023/04/17 13:58:53;;;;;;;;;51.00;39.50;;;;;13.10;57.63;102191.91;6277128;22;45260;-72
2023/04/17 14:01:19;;;;;;;;;41.75;36.75;;;;;13.12;58.09;102185.81;6277702;22;45221;-72
2023/04/17 14:03:45;;;;;;;;;42.00;34.50;;;;;13.19;57.57;102190.53;6276995;22;45178;-72
2023/04/17 14:06:11;;;;;;;;;49.00;39.50;;;;;13.25;57.41;102191.56;6277429;22;45268;-72
2023/04/17 14:08:36;;;;;;;;;43.50;37.75;;;;;13.24;57.65;102193.31;6276756;22;45292;-72
2023/04/17 14:11:01;;;;;;;;;44.75;35.50;;;;;13.26;57.54;102193.41;6277784;22;45284;-72
2023/04/17 14:13:27;;;;;;;;;48.00;36.00;;;;;13.24;57.56;102187.09;6249581;22;47427;-72
2023/04/17 14:15:53;;;;;;;;;46.00;35.75;;;;;13.22;57.25;102184.41;6249039;22;45264;-72
2023/04/17 14:18:19;;;;;;;;;47.25;37.75;;;;;13.24;57.26;102182.69;6277344;22;45327;-72
2023/04/17 14:20:44;;;;;;;;;49.50;37.50;;;;;13.28;57.72;102183.78;6274806;22;45293;-72
2023/04/17 14:23:10;;;;;;;;;50.00;38.75;;;;;13.25;57.69;102168.59;6276553;22;45282;-72
2023/04/17 14:25:36;;;;;;;;;46.00;37.50;;;;;13.30;57.44;102177.63;6277231;22;45359;-71
2023/04/17 14:28:02;;;;;;;;;45.50;37.50;;;;;13.26;57.31;102159.78;6277179;22;45212;-72
2023/04/17 14:30:27;;;;;;;;;46.50;39.25;;;;;13.31;57.29;102173.25;6275699;22;45157;-71
2023/04/17 14:32:53;;;;;;;;;27.75;24.25;;;;;13.28;57.03;102163.41;6277033;22;45519;-72
2023/04/17 14:35:19;;;;;;;;;48.25;33.50;;;;;13.33;57.35;102152.94;6248977;22;45942;-72
2023/04/17 14:37:44;;;;;;;;;46.75;37.25;;;;;13.29;57.36;102148.38;6276704;22;45241;-72
2023/04/17 14:40:10;;;;;;;;;43.50;36.50;;;;;13.33;57.30;102139.66;6276489;22;45108;-72
2023/04/17 14:42:36;;;;;;;;;45.25;33.75;;;;;13.41;57.36;102146.13;6276972;22;46200;-71
2023/04/17 14:45:02;;;;;;;;;45.25;37.75;;;;;13.47;57.31;102140.13;6248885;22;45318;-71
2023/04/17 14:47:27;;;;;;;;;47.75;38.50;;;;;13.57;56.83;102153.78;6277077;22;45241;-71
2023/04/17 14:49:53;;;;;;;;;43.75;32.50;;;;;13.50;57.09;102126.94;6276504;22;45252;-71
2023/04/17 14:52:18;;;;;;;;;42.75;33.75;;;;;13.62;57.25;102143.31;6276867;22;45254;-71
2023/04/17 14:54:43;;;;;;;;;47.00;38.25;;;;;13.61;56.89;102128.22;6275577;22;45318;-70
2023/04/17 14:57:09;;;;;;;;;44.50;37.00;;;;;13.59;56.99;102120.22;6277190;22;47426;-71
2023/04/17 14:59:34;;;;;;;;;41.75;34.50;;;;;13.75;56.49;102134.91;6276715;22;45494;-71
2023/04/17 15:01:59;;;;;;;;;47.25;37.25;;;;;13.80;56.85;102119.09;6276587;22;46120;-71
2023/04/17 15:04:25;;;;;;;;;45.00;37.25;;;;;13.87;56.30;102110.47;6276752;22;45235;-71
2023/04/17 15:06:50;;;;;;;;;40.50;36.50;;;;;14.07;56.30;102113.75;6277475;22;45308;-71
2023/04/17 15:09:16;;;;;;;;;44.25;33.50;;;;;14.18;56.24;102103.47;6276550;22;45204;-71
2023/04/17 15:11:41;;;;;;;;;47.00;37.25;;;;;14.26;55.82;102100.16;6249196;22;45237;-71
2023/04/17 15:14:06;;;;;;;;;42.75;36.25;;;;;14.49;55.71;102108.81;6276866;22;45262;-71
2023/04/17 15:16:32;;;;;;;;;34.50;28.75;;;;;14.63;54.43;102093.28;6277325;22;45493;-71
2023/04/17 15:18:58;;;;;;;;;39.50;31.00;;;;;14.78;54.26;102108.78;6248917;22;45243;-71
2023/04/17 15:21:23;;;;;;;;;41.25;35.25;;;;;14.87;54.32;102108.13;6276811;22;45239;-71
2023/04/17 15:23:48;;;;;;;;;39.75;33.75;;;;;14.96;53.97;102100.44;6276012;22;50345;-71
2023/04/17 15:26:14;;;;;;;;;40.25;36.50;;;;;14.99;55.03;102101.41;6276815;22;49020;-71
2023/04/17 15:28:39;;;;;;;;;31.50;29.00;;;;;14.93;53.81;102087.03;6276739;22;45269;-71
2023/04/17 15:31:05;;;;;;;;;37.50;32.00;;;;;14.93;54.77;102093.25;6277087;22;45165;-71
2023/04/17 15:33:31;;;;;;;;;46.00;36.25;;;;;14.90;53.94;102092.25;6276585;22;45395;-71
2023/04/17 15:35:58;;;;;;;;;48.50;37.50;;;;;14.92;53.72;102095.84;6276758;22;45419;-71
2023/04/17 15:38:24;;;;;;;;;37.75;32.50;;;;;14.88;53.83;102083.34;6275143;22;45436;-71
2023/04/17 15:40:50;;;;;;;;;45.00;35.50;;;;;14.89;54.38;102080.69;6276758;22;45391;-71
2023/04/17 15:43:16;;;;;;;;;40.25;33.25;;;;;14.91;53.74;102078.09;6276748;22;45221;-71
2023/04/17 15:45:41;;;;;;;;;42.50;36.00;;;;;14.91;54.60;102081.66;6275695;22;45232;-72
2023/04/17 15:48:07;;;;;;;;;42.75;35.50;;;;;14.90;53.17;102087.84;6275866;22;45564;-72
2023/04/17 15:50:33;;;;;;;;;45.00;33.25;;;;;14.76;54.19;102073.25;6246253;22;46297;-72
2023/04/17 15:52:58;;;;;;;;;42.25;36.00;;;;;14.76;54.09;102081.25;6273602;22;45220;-71
2023/04/17 15:55:23;;;;;;;;;44.75;35.75;;;;;14.74;53.60;102073.19;6276026;22;45214;-72
2023/04/17 15:57:49;;;;;;;;;42.75;34.25;;;;;14.70;54.36;102079.31;6276464;22;45231;-72
2023/04/17 16:00:14;;;;;;;;;45.25;35.25;;;;;14.70;54.36;102070.41;6276563;22;45292;-72
2023/04/17 16:02:40;;;;;;;;;43.75;34.00;;;;;14.67;54.57;102072.97;6276800;22;45165;-72
2023/04/17 16:05:06;;;;;;;;;34.50;33.00;;;;;14.60;54.63;102065.72;6277771;22;45224;-72
2023/04/17 16:07:31;;;;;;;;;42.75;34.00;;;;;14.62;54.56;102069.28;6276009;22;45378;-72
2023/04/17 16:09:57;;;;;;;;;41.75;34.00;;;;;14.58;54.44;102064.75;6277440;22;45397;-73
2023/04/17 16:12:22;;;;;;;;;39.50;34.50;;;;;14.53;54.65;102043.31;6249947;22;45261;-71
2023/04/17 16:14:48;;;;;;;;;47.00;36.50;;;;;14.75;54.78;102071.44;6250045;22;45233;-71
2023/04/17 16:17:13;;;;;;;;;47.00;34.75;;;;;14.72;54.42;102071.34;6250066;22;45324;-71
2023/04/17 16:19:38;;;;;;;;;37.00;31.50;;;;;14.62;54.08;102048.00;6277537;22;45202;-72
2023/04/17 16:22:04;;;;;;;;;45.50;35.25;;;;;14.69;54.59;102057.97;6278058;22;45193;-71
2023/04/17 16:24:29;;;;;;;;;42.50;34.50;;;;;14.67;54.97;102044.59;6249757;22;45312;-72
2023/04/17 16:26:59;;;;;;;;;38.50;32.50;;;;;14.74;54.52;102051.91;6249699;22;45499;-72
2023/04/17 16:29:26;;;;;;;;;42.00;33.50;;;;;14.76;54.66;102058.19;6249689;22;46391;-71
2023/04/17 16:31:52;;;;;;;;;43.75;37.00;;;;;14.75;54.90;102044.81;6277797;22;45329;-72
2023/04/17 16:34:18;;;;;;;;;66.25;50.25;;;;;14.82;54.89;102054.78;6277636;22;45236;-71
2023/04/17 16:36:43;;;;;;;;;47.00;37.25;;;;;14.77;54.57;102040.44;6277502;22;45268;-72
2023/04/17 16:39:09;;;;;;;;;47.25;36.75;;;;;14.82;54.76;102049.47;6277306;22;46163;-72
2023/04/17 16:41:34;;;;;;;;;40.25;33.50;;;;;14.84;54.53;102053.03;6276771;22;45296;-72
2023/04/17 16:44:00;;;;;;;;;50.00;40.25;;;;;14.80;54.58;102042.28;6277670;22;45247;-72
2023/04/17 16:46:25;;;;;;;;;36.00;33.25;;;;;14.86;54.97;102054.00;6277945;22;45425;-72
2023/04/17 16:48:52;;;;;;;;;56.00;45.50;;;;;14.90;54.48;102054.97;6277318;22;45223;-72
2023/04/17 16:51:19;;;;;;;;;51.75;39.25;;;;;14.89;54.33;102054.06;6278311;22;45240;-72
2023/04/17 16:53:44;;;;;;;;;40.00;34.00;;;;;14.89;54.49;102050.53;6275666;22;45115;-72
2023/04/17 16:56:10;;;;;;;;;47.50;38.75;;;;;14.85;54.75;102051.31;6249746;22;46004;-72
2023/04/17 16:58:35;;;;;;;;;50.75;40.50;;;;;14.72;54.81;102036.75;6277374;22;46050;-72
2023/04/17 17:01:00;;;;;;;;;44.75;37.00;;;;;14.67;54.66;102043.72;6277860;22;45241;-71
2023/04/17 17:03:26;;;;;;;;;43.75;37.00;;;;;14.59;54.89;102043.53;6277668;22;45375;-72